Time;durP1;ratioP1;P1;durP2;ratioP2;P2;SDS_P1;SDS_P2;PMS_P1;PMS_P2;Temp;Humidity;BMP_temperature;BMP_pressure;BME280_temperature;BME280_humidity;BME280_pressure;Samples;Min_cycle;Max_cycle;Signal;HPM_P1;HPM_P2
2021/05/11 00:00:48;;;;;;;1.33;1.02;;;18.00;99.90;;;;;;5094192;28;20201;-78
2021/05/11 00:03:17;;;;;;;5.72;1.33;;;18.00;99.90;;;;;;5094206;28;20225;-78
2021/05/11 00:05:44;;;;;;;1.10;1.10;;;18.00;99.90;;;;;;5101115;28;20236;-78
2021/05/11 00:08:10;;;;;;;1.30;1.20;;;18.00;99.90;;;;;;5091294;28;20208;-78
2021/05/11 00:10:36;;;;;;;1.65;1.50;;;18.00;99.90;;;;;;5089049;28;20686;-76
2021/05/11 00:13:03;;;;;;;4.10;1.20;;;18.00;99.90;;;;;;5090828;28;20208;-76
2021/05/11 00:15:30;;;;;;;1.30;1.20;;;17.90;99.90;;;;;;5094070;28;20197;-77
2021/05/11 00:17:56;;;;;;;6.53;2.28;;;17.90;99.90;;;;;;5087802;28;20201;-76
2021/05/11 00:20:23;;;;;;;1.63;1.52;;;17.90;99.90;;;;;;5091100;28;20204;-77
2021/05/11 00:22:50;;;;;;;1.40;1.30;;;17.80;99.90;;;;;;5088605;28;20197;-77
2021/05/11 00:25:17;;;;;;;3.63;2.08;;;17.80;99.90;;;;;;5094396;28;20220;-77
2021/05/11 00:27:43;;;;;;;1.40;1.30;;;17.60;99.90;;;;;;5093616;28;20201;-77
2021/05/11 00:30:11;;;;;;;1.70;1.52;;;17.60;99.90;;;;;;5087315;28;20209;-76
2021/05/11 00:32:38;;;;;;;1.35;1.25;;;17.50;99.90;;;;;;5087191;28;20209;-76
2021/05/11 00:35:05;;;;;;;5.50;1.55;;;17.50;99.90;;;;;;5087894;28;20208;-76
2021/05/11 00:37:32;;;;;;;1.80;1.42;;;17.50;99.90;;;;;;5087178;28;20792;-76
2021/05/11 00:39:59;;;;;;;6.07;1.70;;;17.50;99.90;;;;;;5087589;28;20237;-77
2021/05/11 00:42:25;;;;;;;1.38;1.27;;;17.40;99.90;;;;;;5093552;28;20208;-76
2021/05/11 00:44:53;;;;;;;2.45;1.60;;;17.30;99.90;;;;;;5094061;28;20229;-76
2021/05/11 00:47:19;;;;;;;2.00;1.65;;;17.40;99.90;;;;;;5086869;28;20201;-76
2021/05/11 00:49:48;;;;;;;2.40;1.70;;;17.30;99.90;;;;;;5094099;28;20265;-76
2021/05/11 00:52:14;;;;;;;4.72;1.50;;;17.30;99.90;;;;;;5091594;28;20223;-76
2021/05/11 00:54:42;;;;;;;1.50;1.40;;;17.30;99.90;;;;;;5098093;28;20212;-76
2021/05/11 00:57:09;;;;;;;3.05;1.70;;;17.20;99.90;;;;;;5087130;28;20208;-76
2021/05/11 00:59:36;;;;;;;1.95;1.70;;;17.20;99.90;;;;;;5087403;28;20268;-78
2021/05/11 01:02:09;;;;;;;2.10;1.85;;;17.20;99.90;;;;;;5095650;28;20196;-77
2021/05/11 01:04:36;;;;;;;4.28;2.47;;;17.30;99.90;;;;;;5091904;28;20279;-78
2021/05/11 01:07:04;;;;;;;2.10;1.73;;;17.30;99.90;;;;;;5087780;28;20208;-77
2021/05/11 01:09:31;;;;;;;2.03;1.88;;;17.30;99.90;;;;;;5091887;28;20203;-77
2021/05/11 01:11:59;;;;;;;2.53;2.00;;;17.30;99.90;;;;;;5087306;28;20205;-77
2021/05/11 01:14:26;;;;;;;2.08;1.88;;;17.30;99.90;;;;;;5087813;28;20201;-77
2021/05/11 01:16:55;;;;;;;2.47;1.77;;;17.30;99.90;;;;;;5094821;28;20201;-77
2021/05/11 01:19:25;;;;;;;3.35;2.00;;;17.20;99.90;;;;;;5090559;28;20196;-77
2021/05/11 01:21:57;;;;;;;1.88;1.77;;;17.10;99.90;;;;;;5090169;28;20344;-77
2021/05/11 01:24:26;;;;;;;3.03;2.30;;;17.00;99.90;;;;;;5095693;28;20292;-77
2021/05/11 01:26:56;;;;;;;2.20;2.00;;;17.00;99.90;;;;;;5090241;28;20244;-77
2021/05/11 01:48:46;;;;;;;3.08;2.70;;;17.10;99.90;;;;;;5086232;28;20213;-76
2021/05/11 01:51:22;;;;;;;4.03;2.75;;;17.00;99.90;;;;;;5085264;28;20208;-76
2021/05/11 01:56:53;;;;;;;2.40;2.20;;;17.10;99.90;;;;;;5094335;28;20291;-76
2021/05/11 02:24:31;;;;;;;4.05;2.92;;;17.10;99.90;;;;;;5023816;28;20241;-76
2021/05/11 02:26:58;;;;;;;5.00;3.45;;;17.00;99.90;;;;;;5023698;28;20202;-76
2021/05/11 02:29:25;;;;;;;4.07;3.75;;;16.90;99.90;;;;;;5027281;28;20566;-76
2021/05/11 02:31:51;;;;;;;4.07;3.65;;;16.90;99.90;;;;;;5023673;28;20222;-76
2021/05/11 02:34:17;;;;;;;6.22;3.70;;;16.80;99.90;;;;;;5023278;28;20207;-76
2021/05/11 02:36:44;;;;;;;3.85;3.38;;;16.80;99.90;;;;;;5023736;28;20247;-76
2021/05/11 02:39:10;;;;;;;3.70;3.33;;;16.80;99.90;;;;;;5065039;28;20237;-76
2021/05/11 02:41:38;;;;;;;4.28;3.88;;;16.80;99.90;;;;;;5089653;28;20205;-76
2021/05/11 02:44:05;;;;;;;5.05;4.55;;;16.90;99.90;;;;;;5086123;28;20197;-76
2021/05/11 02:46:34;;;;;;;5.05;3.90;;;16.90;99.90;;;;;;5088260;28;20205;-76
2021/05/11 02:49:02;;;;;;;4.10;3.70;;;16.90;99.90;;;;;;5092376;28;20208;-76
2021/05/11 02:51:28;;;;;;;4.22;3.70;;;16.90;99.90;;;;;;5101921;28;20226;-76
2021/05/11 02:59:16;;;;;;;4.40;4.00;;;16.70;99.90;;;;;;5089174;28;20200;-76
2021/05/11 03:01:44;;;;;;;4.35;3.90;;;16.70;99.90;;;;;;5089170;28;20205;-76
2021/05/11 03:04:10;;;;;;;4.47;4.15;;;16.70;99.90;;;;;;5088680;28;20228;-76
2021/05/11 03:06:36;;;;;;;4.82;4.43;;;16.80;99.90;;;;;;5088812;28;20201;-76
2021/05/11 03:09:04;;;;;;;7.05;4.65;;;16.80;99.90;;;;;;5088660;28;20231;-76
2021/05/11 03:11:30;;;;;;;6.50;4.32;;;16.70;99.90;;;;;;5092711;28;20227;-76
2021/05/11 03:13:57;;;;;;;6.65;5.35;;;16.80;99.90;;;;;;5094925;28;20238;-77
2021/05/11 03:16:24;;;;;;;7.80;5.00;;;16.80;99.90;;;;;;5096269;28;20258;-77
2021/05/11 03:18:51;;;;;;;5.80;5.20;;;16.80;99.90;;;;;;5089080;28;20208;-77
2021/05/11 03:21:18;;;;;;;5.97;4.93;;;16.80;99.90;;;;;;5090018;28;20598;-77
2021/05/11 03:23:44;;;;;;;5.47;4.97;;;16.80;99.90;;;;;;5090063;28;20208;-77
2021/05/11 03:26:11;;;;;;;13.85;6.00;;;16.80;99.90;;;;;;5094476;28;20244;-77
2021/05/11 03:28:37;;;;;;;6.05;4.88;;;16.80;99.90;;;;;;5090379;28;20209;-77
2021/05/11 03:31:04;;;;;;;7.15;5.47;;;16.80;99.90;;;;;;5089998;28;20200;-77
2021/05/11 03:33:30;;;;;;;6.20;5.60;;;16.80;99.90;;;;;;5093549;28;20205;-76
2021/05/11 03:35:57;;;;;;;5.97;5.18;;;16.80;99.90;;;;;;5094100;28;20230;-76
2021/05/11 03:38:24;;;;;;;6.35;5.75;;;16.80;99.90;;;;;;5088624;28;20205;-76
2021/05/11 03:40:51;;;;;;;6.10;5.20;;;16.80;99.90;;;;;;5099530;28;20208;-77
2021/05/11 03:43:21;;;;;;;11.38;6.57;;;16.90;99.90;;;;;;5101063;28;20219;-78
2021/05/11 03:45:52;;;;;;;6.70;6.00;;;16.80;99.90;;;;;;5093271;28;20224;-78
2021/05/11 03:48:18;;;;;;;7.40;6.65;;;16.90;99.90;;;;;;5094280;28;20193;-78
2021/05/11 03:50:44;;;;;;;9.07;7.53;;;16.80;99.90;;;;;;5098922;28;20461;-78
2021/05/11 03:53:12;;;;;;;9.60;7.57;;;16.70;99.90;;;;;;5091303;28;20208;-78
2021/05/11 03:55:38;;;;;;;10.23;6.50;;;16.80;99.90;;;;;;5099548;28;20209;-78
2021/05/11 03:58:05;;;;;;;9.63;7.10;;;16.80;99.90;;;;;;5091121;28;20216;-77
2021/05/11 04:00:31;;;;;;;9.60;7.50;;;16.80;99.90;;;;;;5098378;28;20205;-77
2021/05/11 04:02:57;;;;;;;8.40;7.50;;;16.70;99.90;;;;;;5099204;28;20259;-77
2021/05/11 04:05:24;;;;;;;7.20;6.55;;;16.60;99.90;;;;;;5092324;28;20224;-76
2021/05/11 04:07:54;;;;;;;10.07;7.63;;;16.70;99.90;;;;;;5091685;28;20220;-76
2021/05/11 04:10:26;;;;;;;8.95;7.90;;;16.70;99.90;;;;;;5088328;28;20201;-76
2021/05/11 04:18:20;;;;;;;11.32;8.07;;;16.60;99.90;;;;;;5087798;28;20231;-76
2021/05/11 04:20:47;;;;;;;12.52;9.73;;;16.60;99.90;;;;;;5089064;28;20201;-77
2021/05/11 04:23:13;;;;;;;11.10;9.35;;;16.70;99.90;;;;;;5096440;28;20197;-77
2021/05/11 04:25:41;;;;;;;14.40;10.02;;;16.60;99.90;;;;;;5088507;28;20240;-77
2021/05/11 04:28:07;;;;;;;12.45;9.48;;;16.60;99.90;;;;;;5087404;28;20224;-77
2021/05/11 04:30:34;;;;;;;13.23;9.27;;;16.50;99.90;;;;;;5087994;28;20197;-77
2021/05/11 04:33:00;;;;;;;11.93;10.00;;;16.60;99.90;;;;;;5091885;28;20209;-76
2021/05/11 04:35:26;;;;;;;11.00;9.38;;;16.60;99.90;;;;;;5099323;28;20197;-76
2021/05/11 04:37:53;;;;;;;14.80;10.32;;;16.60;99.90;;;;;;5093257;28;20208;-76
2021/05/11 04:40:19;;;;;;;11.60;10.25;;;16.70;99.90;;;;;;5092533;28;20197;-76
2021/05/11 04:42:46;;;;;;;10.55;9.40;;;16.60;99.90;;;;;;5089098;28;20216;-77
2021/05/11 04:45:19;;;;;;;14.13;10.30;;;16.60;99.90;;;;;;5089545;28;20225;-77
2021/05/11 04:47:50;;;;;;;10.82;9.70;;;16.70;99.90;;;;;;5089580;28;20205;-78
2021/05/11 04:50:18;;;;;;;12.88;9.52;;;16.70;99.90;;;;;;5096768;28;20201;-77
2021/05/11 04:52:45;;;;;;;11.05;9.23;;;16.80;99.90;;;;;;5095261;28;20212;-78
2021/05/11 04:55:13;;;;;;;10.88;8.00;;;16.80;99.90;;;;;;5098484;28;20215;-77
2021/05/11 04:57:40;;;;;;;12.90;9.23;;;16.90;99.90;;;;;;5096732;28;20232;-78
2021/05/11 05:00:09;;;;;;;11.13;8.70;;;16.90;99.90;;;;;;5090661;28;20197;-78
2021/05/11 05:02:38;;;;;;;10.80;9.05;;;16.90;99.90;;;;;;5089123;28;20205;-78
2021/05/11 05:05:05;;;;;;;11.20;8.93;;;16.90;99.90;;;;;;5101757;28;20260;-77
2021/05/11 05:07:32;;;;;;;11.25;8.13;;;16.80;99.90;;;;;;5089209;28;20197;-77
2021/05/11 05:09:58;;;;;;;10.10;7.93;;;16.80;99.90;;;;;;5091336;28;20201;-78
2021/05/11 05:12:24;;;;;;;8.60;7.70;;;16.70;99.90;;;;;;5091116;28;20205;-78
2021/05/11 05:14:51;;;;;;;13.70;9.80;;;16.80;99.90;;;;;;5089669;28;20292;-78
2021/05/11 05:17:18;;;;;;;12.10;8.23;;;16.80;99.90;;;;;;5088728;28;20551;-78
2021/05/11 05:19:44;;;;;;;10.90;8.38;;;16.90;99.90;;;;;;5086989;28;20867;-77
2021/05/11 05:22:11;;;;;;;12.27;8.60;;;16.90;99.90;;;;;;5087528;28;20209;-78
2021/05/11 05:24:41;;;;;;;11.88;8.13;;;16.90;99.90;;;;;;5092454;28;20228;-78
2021/05/11 05:27:17;;;;;;;11.32;7.47;;;17.00;99.90;;;;;;5104126;28;20224;-78
2021/05/11 05:29:44;;;;;;;10.95;7.88;;;17.10;99.90;;;;;;5095934;28;20557;-77
2021/05/11 05:32:10;;;;;;;8.52;7.38;;;17.10;99.90;;;;;;5099071;28;20236;-78
2021/05/11 05:34:38;;;;;;;10.07;7.53;;;17.10;99.90;;;;;;5097506;28;20193;-78
2021/05/11 05:37:04;;;;;;;10.60;6.90;;;17.10;99.90;;;;;;5095135;28;20205;-79
2021/05/11 05:39:36;;;;;;;8.23;6.75;;;17.10;99.90;;;;;;5095961;28;20207;-77
2021/05/11 05:42:03;;;;;;;9.65;7.07;;;17.10;99.90;;;;;;5092337;28;20621;-77
2021/05/11 05:44:29;;;;;;;8.52;6.55;;;17.20;99.90;;;;;;5091460;28;20236;-77
2021/05/11 05:46:56;;;;;;;10.07;7.38;;;17.20;99.90;;;;;;5090891;28;20204;-78
2021/05/11 05:49:24;;;;;;;13.18;7.53;;;17.20;99.90;;;;;;5091080;28;20197;-78
2021/05/11 05:51:51;;;;;;;11.35;7.30;;;17.10;99.90;;;;;;5095536;28;20201;-78
2021/05/11 05:54:18;;;;;;;12.07;6.47;;;17.10;99.90;;;;;;5099126;28;20249;-77
2021/05/11 05:56:44;;;;;;;10.02;6.63;;;17.10;99.90;;;;;;5088944;28;20212;-77
2021/05/11 05:59:11;;;;;;;9.48;7.57;;;17.10;99.90;;;;;;5101475;28;20210;-77
2021/05/11 06:01:37;;;;;;;10.43;7.28;;;17.20;99.90;;;;;;5094849;28;20263;-77
2021/05/11 06:04:10;;;;;;;10.30;7.43;;;17.20;99.90;;;;;;5097136;28;20236;-77
2021/05/11 06:06:36;;;;;;;10.65;7.32;;;17.30;99.90;;;;;;5090087;28;20219;-77
2021/05/11 06:09:10;;;;;;;8.05;6.65;;;17.30;99.90;;;;;;5092617;28;20201;-77
2021/05/11 06:11:41;;;;;;;12.60;6.80;;;17.30;99.90;;;;;;5094511;28;20205;-77
2021/05/11 06:14:16;;;;;;;10.18;7.13;;;17.30;99.90;;;;;;5096513;28;20238;-77
2021/05/11 06:19:27;;;;;;;7.63;5.65;;;17.30;99.90;;;;;;5091249;28;20207;-77
2021/05/11 06:21:54;;;;;;;7.30;5.35;;;17.40;99.90;;;;;;5099815;28;20201;-78
2021/05/11 06:24:21;;;;;;;8.25;5.15;;;17.40;99.90;;;;;;5097198;28;20228;-77
2021/05/11 06:26:47;;;;;;;7.35;5.35;;;17.50;99.90;;;;;;5099121;28;20257;-77
2021/05/11 06:29:14;;;;;;;10.93;5.70;;;17.60;99.90;;;;;;5099150;28;20188;-77
2021/05/11 06:31:41;;;;;;;7.55;5.88;;;17.70;99.90;;;;;;5093229;28;20205;-78
2021/05/11 06:34:09;;;;;;;9.02;5.80;;;17.70;99.90;;;;;;5098514;28;20458;-78
2021/05/11 06:36:36;;;;;;;11.60;6.53;;;17.80;99.90;;;;;;5101826;28;20204;-79
2021/05/11 06:39:06;;;;;;;10.23;5.00;;;17.90;99.90;;;;;;5097169;28;20185;-79
2021/05/11 06:41:35;;;;;;;6.60;5.20;;;17.90;99.90;;;;;;5098371;28;20301;-79
2021/05/11 06:44:05;;;;;;;7.00;4.72;;;17.80;99.90;;;;;;5097750;28;20205;-78
2021/05/11 06:49:39;;;;;;;10.45;4.72;;;17.80;99.90;;;;;;5029612;28;20195;-80
2021/05/11 06:54:51;;;;;;;5.38;4.35;;;17.90;99.90;;;;;;5024005;28;20214;-77
2021/05/11 06:57:21;;;;;;;7.53;4.45;;;17.90;99.90;;;;;;5024313;28;20203;-77
2021/05/11 06:59:48;;;;;;;6.97;5.18;;;17.90;99.90;;;;;;5027367;28;20270;-77
2021/05/11 07:02:15;;;;;;;6.57;4.28;;;17.90;99.90;;;;;;5031586;28;20214;-77
2021/05/11 07:04:43;;;;;;;4.53;4.10;;;17.90;99.90;;;;;;5027997;28;20323;-77
2021/05/11 07:07:12;;;;;;;7.10;4.25;;;17.70;99.90;;;;;;5029006;28;20203;-77
2021/05/11 07:09:52;;;;;;;8.60;4.32;;;17.60;99.90;;;;;;5029709;28;20210;-78
2021/05/11 07:15:13;;;;;;;6.72;4.10;;;17.60;99.90;;;;;;4999536;28;20243;-77
2021/05/11 07:17:39;;;;;;;6.00;5.28;;;17.70;99.90;;;;;;5005225;28;20212;-77
2021/05/11 07:20:06;;;;;;;7.43;4.15;;;17.80;99.90;;;;;;4990812;28;20208;-77
2021/05/11 07:22:33;;;;;;;6.55;3.85;;;17.80;99.90;;;;;;5001345;28;20220;-77
2021/05/11 07:25:00;;;;;;;7.50;4.15;;;17.80;99.90;;;;;;5073557;28;20237;-77
2021/05/11 07:27:47;;;;;;;4.00;3.60;;;17.90;99.90;;;;;;5072887;28;20257;-77
2021/05/11 07:30:16;;;;;;;7.80;4.60;;;18.00;99.90;;;;;;5074149;28;20224;-77
2021/05/11 07:32:42;;;;;;;5.43;4.57;;;18.00;99.90;;;;;;5080096;28;20295;-77
2021/05/11 07:35:09;;;;;;;6.25;4.55;;;17.90;99.90;;;;;;5072107;28;20205;-77
2021/05/11 07:37:36;;;;;;;7.45;4.75;;;17.90;99.90;;;;;;5078446;28;20192;-77
2021/05/11 07:40:02;;;;;;;11.18;4.63;;;17.90;99.90;;;;;;5075944;28;20206;-77
2021/05/11 07:42:31;;;;;;;6.40;4.60;;;18.00;99.90;;;;;;5082565;28;20272;-77
2021/05/11 07:45:00;;;;;;;5.05;4.55;;;17.80;99.90;;;;;;5073637;28;20217;-77
2021/05/11 07:47:33;;;;;;;5.88;4.18;;;17.60;99.90;;;;;;5081409;28;20251;-77
2021/05/11 08:04:19;;;;;;;4.75;3.25;;;18.20;99.90;;;;;;5034400;28;20233;-78
2021/05/11 08:15:09;;;;;;;5.25;3.20;;;18.30;99.90;;;;;;5028873;28;20221;-78
2021/05/11 08:17:38;;;;;;;4.20;3.00;;;18.40;99.90;;;;;;5028484;28;20215;-77
2021/05/11 08:20:15;;;;;;;5.38;3.95;;;18.60;99.90;;;;;;5032882;28;20238;-77
2021/05/11 08:28:14;;;;;;;13.18;3.30;;;19.00;99.90;;;;;;5022646;28;20210;-77
2021/05/11 08:30:42;;;;;;;7.88;3.20;;;19.20;99.90;;;;;;5018522;28;20219;-77
2021/05/11 08:33:08;;;;;;;9.40;3.60;;;19.30;99.90;;;;;;5012671;28;20204;-76
2021/05/11 08:35:35;;;;;;;8.48;3.60;;;19.30;99.90;;;;;;5009698;28;20211;-75
2021/05/11 08:38:01;;;;;;;8.55;4.18;;;19.40;99.90;;;;;;5005664;28;20208;-75
2021/05/11 08:40:28;;;;;;;8.02;4.10;;;19.30;99.90;;;;;;5006468;28;20698;-74
2021/05/11 08:42:54;;;;;;;9.10;3.90;;;19.30;99.90;;;;;;5012997;28;20211;-75
2021/05/11 08:45:21;;;;;;;9.38;3.88;;;19.20;99.90;;;;;;5017696;28;20273;-75
2021/05/11 08:47:52;;;;;;;10.73;4.45;;;19.00;99.90;;;;;;5014889;28;20204;-77
2021/05/11 08:50:22;;;;;;;6.05;3.90;;;19.20;99.90;;;;;;5010200;28;20207;-78
2021/05/11 08:53:02;;;;;;;7.85;4.18;;;19.20;99.90;;;;;;5014646;28;20351;-78
2021/05/11 08:59:55;;;;;;;5.38;3.75;;;19.20;99.90;;;;;;5009919;28;20223;-77
2021/05/11 09:27:05;;;;;;;8.70;4.43;;;19.10;99.90;;;;;;5091069;28;20211;-78
2021/05/11 09:29:41;;;;;;;6.88;4.70;;;19.10;99.90;;;;;;5090245;28;20236;-78
2021/05/11 09:35:27;;;;;;;8.10;4.57;;;19.30;99.90;;;;;;5095287;28;20228;-78
2021/05/11 09:54:47;;;;;;;8.30;5.03;;;20.30;99.90;;;;;;5097432;28;20538;-78
2021/05/11 09:57:20;;;;;;;6.47;4.20;;;20.20;99.90;;;;;;5096070;28;20209;-78
2021/05/11 10:32:13;;;;;;;5.65;5.15;;;19.50;99.90;;;;;;5034339;28;20209;-77
2021/05/11 10:40:33;;;;;;;5.57;5.03;;;19.70;99.90;;;;;;5038273;28;20252;-77
2021/05/11 10:48:40;;;;;;;7.88;4.22;;;19.70;99.90;;;;;;5086964;28;20201;-77
2021/05/11 10:51:16;;;;;;;4.95;3.60;;;19.70;99.90;;;;;;5088367;28;20200;-77
2021/05/11 10:53:51;;;;;;;4.07;3.15;;;19.70;99.90;;;;;;5083659;28;20211;-77
2021/05/11 10:57:06;;;;;;;6.30;3.13;;;19.60;99.90;;;;;;5083280;28;20250;-76
2021/05/11 10:59:50;;;;;;;3.88;2.90;;;19.70;99.90;;;;;;5082376;28;20202;-76
2021/05/11 11:02:38;;;;;;;11.80;3.50;;;19.80;99.90;;;;;;5092064;28;20201;-76
2021/05/11 11:05:06;;;;;;;3.47;3.10;;;19.80;99.90;;;;;;5100264;28;20200;-76
2021/05/11 11:07:35;;;;;;;14.50;3.67;;;19.90;99.90;;;;;;5082528;28;20209;-76
2021/05/11 11:15:28;;;;;;;4.10;2.83;;;20.40;99.90;;;;;;5077633;28;20671;-76
2021/05/11 11:23:35;;;;;;;4.82;3.15;;;20.20;99.90;;;;;;5067852;28;20752;-76
2021/05/11 11:26:12;;;;;;;2.90;2.65;;;20.10;99.90;;;;;;5071671;28;20207;-77
2021/05/11 11:28:39;;;;;;;4.90;2.47;;;20.10;99.90;;;;;;5070351;28;20265;-77
2021/05/11 11:31:23;;;;;;;3.60;2.92;;;20.10;99.90;;;;;;5077188;28;20212;-77
2021/05/11 11:36:44;;;;;;;9.95;2.67;;;19.90;99.90;;;;;;5072013;28;20204;-77
2021/05/11 11:39:18;;;;;;;6.13;2.85;;;19.90;99.90;;;;;;5081998;28;20204;-76
2021/05/11 11:41:45;;;;;;;2.25;2.05;;;19.90;99.90;;;;;;5076767;28;20212;-76
2021/05/11 11:49:48;;;;;;;3.15;1.88;;;19.80;99.90;;;;;;5067249;28;20201;-76
2021/05/11 11:55:16;;;;;;;2.28;1.95;;;19.80;99.90;;;;;;5072828;28;20232;-77
2021/05/11 11:57:53;;;;;;;2.35;2.15;;;19.70;99.90;;;;;;5070489;28;20269;-76
2021/05/11 12:00:23;;;;;;;3.58;2.05;;;19.70;99.90;;;;;;5076247;28;20455;-76
2021/05/11 12:05:37;;;;;;;1.67;1.58;;;19.70;99.90;;;;;;5070745;28;20206;-77
2021/05/11 12:08:24;;;;;;;1.88;1.45;;;19.70;99.90;;;;;;5077266;28;20250;-77
2021/05/11 12:11:02;;;;;;;3.75;1.30;;;19.80;99.90;;;;;;5066624;28;20202;-77
2021/05/11 12:16:15;;;;;;;1.10;1.00;;;19.80;99.90;;;;;;5066993;28;20208;-77
2021/05/11 12:19:06;;;;;;;1.45;1.35;;;19.90;99.90;;;;;;5067448;28;20683;-76
2021/05/11 12:21:36;;;;;;;2.13;1.20;;;20.00;99.90;;;;;;5067287;28;20209;-76
2021/05/11 12:29:36;;;;;;;2.42;2.00;;;20.10;99.90;;;;;;5065866;28;20201;-76
2021/05/11 12:32:12;;;;;;;2.30;2.10;;;20.30;99.90;;;;;;5071411;28;20192;-76
2021/05/11 12:45:29;;;;;;;26.58;7.43;;;19.80;99.90;;;;;;5066606;28;20544;-76
2021/05/11 12:50:56;;;;;;;11.80;7.30;;;19.60;99.90;;;;;;5065472;28;20237;-76
2021/05/11 12:53:30;;;;;;;11.13;6.75;;;19.40;99.90;;;;;;5066014;28;20202;-76
2021/05/11 12:56:16;;;;;;;11.68;7.35;;;19.20;99.90;;;;;;5065907;28;20201;-76
2021/05/11 12:58:58;;;;;;;8.60;5.93;;;19.00;99.90;;;;;;5077401;28;20231;-76
2021/05/11 13:01:28;;;;;;;16.25;6.47;;;18.80;99.90;;;;;;5066045;28;20198;-76
2021/05/11 13:04:51;;;;;;;10.68;6.50;;;18.70;99.90;;;;;;5065460;28;20589;-76
2021/05/11 13:21:37;;;;;;;15.73;9.73;;;17.70;99.90;;;;;;4932669;29;20195;-77
2021/05/11 13:27:01;;;;;;;11.75;9.00;;;17.40;99.90;;;;;;4936390;29;20217;-77
2021/05/11 13:29:41;;;;;;;18.73;9.55;;;17.30;99.90;;;;;;4938684;29;20231;-76
2021/05/11 13:32:12;;;;;;;18.52;9.65;;;17.40;99.90;;;;;;4931924;29;20209;-77
2021/05/11 13:34:38;;;;;;;14.95;10.30;;;17.50;99.90;;;;;;4932774;29;20214;-76
2021/05/11 13:37:05;;;;;;;15.40;9.07;;;17.50;99.90;;;;;;4941197;28;20202;-76
2021/05/11 13:39:32;;;;;;;16.67;10.13;;;17.40;99.90;;;;;;4940117;29;20233;-76
2021/05/11 13:41:58;;;;;;;20.40;10.30;;;17.50;99.90;;;;;;4986158;28;20236;-76
2021/05/11 13:47:06;;;;;;;19.02;12.15;;;17.60;99.90;;;;;;4990463;28;20199;-76
2021/05/11 13:49:32;;;;;;;17.00;10.77;;;17.60;99.90;;;;;;4991096;28;20208;-76
2021/05/11 13:54:56;;;;;;;17.33;11.30;;;17.60;99.90;;;;;;4999892;28;20947;-76
2021/05/11 13:57:32;;;;;;;13.15;10.30;;;17.50;99.90;;;;;;5016028;28;20220;-76
2021/05/11 14:02:48;;;;;;;12.82;10.10;;;17.50;99.90;;;;;;5071255;28;20269;-76
2021/05/11 14:05:16;;;;;;;16.13;10.13;;;17.60;99.90;;;;;;5066133;28;20202;-76
2021/05/11 14:07:43;;;;;;;17.50;11.23;;;17.60;99.90;;;;;;5066648;28;20206;-76
2021/05/11 14:10:11;;;;;;;16.27;10.95;;;17.50;99.90;;;;;;5065329;28;20712;-75
2021/05/11 14:12:37;;;;;;;16.48;11.57;;;17.40;99.90;;;;;;5073717;28;20201;-76
2021/05/11 14:15:06;;;;;;;36.03;11.77;;;17.40;99.90;;;;;;5071138;28;20201;-76
2021/05/11 14:17:32;;;;;;;18.95;12.93;;;17.30;99.90;;;;;;5071305;28;20248;-78
2021/05/11 14:19:59;;;;;;;17.35;12.15;;;17.30;99.90;;;;;;5066550;28;20213;-77
2021/05/11 14:22:26;;;;;;;16.10;12.15;;;17.30;99.90;;;;;;5072829;28;20212;-77
2021/05/11 14:24:57;;;;;;;18.58;12.50;;;17.30;99.90;;;;;;5078511;28;20237;-78
2021/05/11 14:27:39;;;;;;;15.98;11.55;;;17.40;99.90;;;;;;5075276;28;20201;-77
2021/05/11 14:41:02;;;;;;;17.75;10.80;;;17.50;99.90;;;;;;5075613;28;20570;-79
2021/05/11 14:43:33;;;;;;;18.75;10.48;;;17.50;99.90;;;;;;5072799;28;20236;-78
2021/05/11 14:46:00;;;;;;;14.95;10.05;;;17.50;99.90;;;;;;5075714;28;20209;-78
2021/05/11 14:48:26;;;;;;;20.10;11.05;;;17.50;99.90;;;;;;5077708;28;20229;-78
2021/05/11 14:50:53;;;;;;;15.82;10.73;;;17.60;99.90;;;;;;5075884;28;20209;-78
2021/05/11 14:53:19;;;;;;;20.67;11.02;;;17.60;99.90;;;;;;5076803;28;20201;-78
2021/05/11 14:58:43;;;;;;;15.63;11.63;;;17.60;99.90;;;;;;5076164;28;20234;-78
2021/05/11 15:01:25;;;;;;;16.20;11.02;;;17.60;99.90;;;;;;5082274;28;20206;-78
2021/05/11 15:03:52;;;;;;;15.82;11.60;;;17.80;99.90;;;;;;5072898;28;20245;-77
2021/05/11 15:06:18;;;;;;;20.70;12.73;;;17.90;99.90;;;;;;5071981;28;20198;-78
2021/05/11 15:08:45;;;;;;;22.05;12.65;;;17.90;99.90;;;;;;5080514;28;20202;-78
2021/05/11 15:11:11;;;;;;;23.23;12.98;;;17.80;99.90;;;;;;5079690;28;20198;-78
2021/05/11 15:13:39;;;;;;;21.13;12.70;;;17.70;99.90;;;;;;5076064;28;20202;-77
2021/05/11 15:24:12;;;;;;;20.88;13.43;;;17.90;99.90;;;;;;5075332;28;20289;-78
2021/05/11 15:26:38;;;;;;;20.58;12.95;;;17.90;99.90;;;;;;5081173;28;20209;-78
2021/05/11 15:29:07;;;;;;;24.83;13.13;;;17.90;99.90;;;;;;5077685;28;20190;-78
2021/05/11 15:34:30;;;;;;;22.45;14.48;;;18.10;99.90;;;;;;5073402;28;20204;-78
2021/05/11 15:37:04;;;;;;;18.23;12.45;;;18.20;99.90;;;;;;5073437;28;20225;-78
2021/05/11 15:47:37;;;;;;;21.95;13.45;;;18.20;99.90;;;;;;5082686;28;20272;-78
2021/05/11 16:03:30;;;;;;;17.83;10.75;;;18.40;99.90;;;;;;5087195;28;20602;-78
2021/05/11 16:05:58;;;;;;;23.40;11.48;;;18.40;99.90;;;;;;5073724;28;20206;-78
2021/05/11 16:08:26;;;;;;;18.30;11.13;;;18.30;99.90;;;;;;5080010;28;20212;-78
2021/05/11 16:19:02;;;;;;;16.20;10.23;;;18.30;99.90;;;;;;5076698;28;20206;-78
2021/05/11 16:21:30;;;;;;;17.95;9.95;;;18.40;99.90;;;;;;5068324;28;20213;-76
2021/05/11 16:23:56;;;;;;;15.57;10.55;;;18.40;99.90;;;;;;5065708;28;20229;-75
2021/05/11 16:26:24;;;;;;;20.77;11.23;;;18.40;99.90;;;;;;5081510;28;20284;-75
2021/05/11 16:28:52;;;;;;;17.55;11.10;;;18.40;99.90;;;;;;5075125;28;20209;-78
2021/05/11 16:31:19;;;;;;;17.25;10.88;;;18.50;99.90;;;;;;5072653;28;20201;-75
2021/05/11 16:33:46;;;;;;;11.13;8.98;;;18.40;99.90;;;;;;5068118;28;20644;-76
2021/05/11 16:36:12;;;;;;;14.93;9.32;;;18.40;99.90;;;;;;5069607;28;20204;-75
2021/05/11 16:38:40;;;;;;;15.55;9.43;;;18.40;99.90;;;;;;5069447;28;20205;-75
2021/05/11 16:41:07;;;;;;;15.50;9.25;;;18.40;99.90;;;;;;5072778;28;20201;-76
2021/05/11 16:43:33;;;;;;;12.43;9.85;;;18.30;99.90;;;;;;5065540;28;20229;-76
2021/05/11 16:46:02;;;;;;;12.75;9.30;;;18.30;99.90;;;;;;5066996;28;20232;-76
2021/05/11 16:48:29;;;;;;;14.90;9.88;;;18.20;99.90;;;;;;5071442;28;20198;-75
2021/05/11 16:50:57;;;;;;;14.95;8.95;;;18.20;99.90;;;;;;5071565;28;20221;-76
2021/05/11 16:53:24;;;;;;;13.50;9.63;;;18.20;99.90;;;;;;5066411;28;20201;-75
2021/05/11 16:55:51;;;;;;;15.02;9.35;;;18.20;99.90;;;;;;5070408;28;20201;-75
2021/05/11 16:58:18;;;;;;;13.75;8.80;;;18.30;99.90;;;;;;5070647;28;20212;-75
2021/05/11 17:00:45;;;;;;;13.18;8.68;;;18.30;99.90;;;;;;5065234;28;20213;-75
2021/05/11 17:03:12;;;;;;;13.93;9.52;;;18.30;99.90;;;;;;5067673;28;20238;-78
2021/05/11 17:05:39;;;;;;;16.05;9.57;;;18.30;99.90;;;;;;5072793;28;20220;-78
2021/05/11 17:08:07;;;;;;;13.90;9.60;;;18.30;99.90;;;;;;5075766;28;20201;-78
2021/05/11 17:10:35;;;;;;;12.52;9.25;;;18.20;99.90;;;;;;5076882;28;20260;-78
2021/05/11 17:13:17;;;;;;;10.60;8.63;;;18.10;99.90;;;;;;5070912;28;20205;-78
2021/05/11 17:15:53;;;;;;;16.13;9.63;;;18.10;99.90;;;;;;5072224;28;20198;-78
2021/05/11 17:21:09;;;;;;;13.27;8.57;;;18.10;99.90;;;;;;5083821;28;20263;-78
2021/05/11 17:37:01;;;;;;;16.80;12.52;;;18.20;99.90;;;;;;5083349;28;20208;-78
2021/05/11 17:39:27;;;;;;;10.40;9.30;;;18.20;99.90;;;;;;5077762;28;20206;-78
2021/05/11 17:41:54;;;;;;;10.63;8.90;;;18.10;99.90;;;;;;5076034;28;20202;-78
2021/05/11 17:44:37;;;;;;;11.68;9.20;;;18.10;99.90;;;;;;5076329;28;20228;-78
2021/05/11 17:49:53;;;;;;;10.23;8.07;;;18.10;99.90;;;;;;5075368;28;20239;-78
2021/05/11 17:52:31;;;;;;;10.57;7.65;;;18.10;99.90;;;;;;5071464;28;20580;-78
2021/05/11 17:54:58;;;;;;;9.20;7.88;;;18.10;99.90;;;;;;5071462;28;20201;-78
2021/05/11 18:00:09;;;;;;;10.18;7.70;;;18.00;99.90;;;;;;5070055;28;20202;-78
2021/05/11 18:02:36;;;;;;;13.52;7.70;;;18.00;99.90;;;;;;5070295;28;20194;-78
2021/05/11 18:05:06;;;;;;;8.77;7.88;;;17.90;99.90;;;;;;5069505;28;20220;-78
2021/05/11 18:10:22;;;;;;;8.60;7.22;;;17.90;99.90;;;;;;5072043;28;20197;-78
2021/05/11 18:18:15;;;;;;;10.90;6.50;;;17.80;99.90;;;;;;5073083;28;20656;-77
2021/05/11 18:20:42;;;;;;;7.45;6.30;;;17.80;99.90;;;;;;5069603;28;20209;-77
2021/05/11 18:23:08;;;;;;;11.68;6.38;;;17.80;99.90;;;;;;5068124;28;20198;-77
2021/05/11 18:25:34;;;;;;;6.57;5.88;;;17.70;99.90;;;;;;5075785;28;20202;-78
2021/05/11 18:28:02;;;;;;;7.80;7.07;;;17.70;99.90;;;;;;5073077;28;20198;-77
2021/05/11 18:30:29;;;;;;;8.95;7.60;;;17.80;99.90;;;;;;5077394;28;20205;-78
2021/05/11 18:46:21;;;;;;;9.70;6.80;;;17.60;99.90;;;;;;5072259;28;20205;-76
2021/05/11 18:48:47;;;;;;;10.10;7.10;;;17.60;99.90;;;;;;5079812;28;20201;-77
2021/05/11 18:51:13;;;;;;;8.55;6.80;;;17.50;99.90;;;;;;5072015;28;20198;-77